sensor_id;sensor_type;location;lat;lon;timestamp;pressure;altitude;pressure_sealevel;temperature;humidity
59787;BME280;45672;51.612;5.536;2023-08-21T00:01:51;102103.25;;;21.39;81.18
59787;BME280;45672;51.612;5.536;2023-08-21T00:04:17;102103.47;;;21.37;81.36
59787;BME280;45672;51.612;5.536;2023-08-21T00:06:43;102101.56;;;21.31;81.93
59787;BME280;45672;51.612;5.536;2023-08-21T00:09:08;102108.38;;;21.27;81.63
59787;BME280;45672;51.612;5.536;2023-08-21T00:11:34;102104.13;;;21.17;81.87
59787;BME280;45672;51.612;5.536;2023-08-21T00:14:00;102090.56;;;21.11;81.73
59787;BME280;45672;51.612;5.536;2023-08-21T00:16:25;102097.38;;;21.07;81.98
59787;BME280;45672;51.612;5.536;2023-08-21T00:18:52;102098.41;;;21.06;82.70
59787;BME280;45672;51.612;5.536;2023-08-21T00:21:18;102105.03;;;21.03;82.37
59787;BME280;45672;51.612;5.536;2023-08-21T00:23:44;102090.63;;;20.96;82.99
59787;BME280;45672;51.612;5.536;2023-08-21T00:26:09;102091.00;;;20.93;83.35
59787;BME280;45672;51.612;5.536;2023-08-21T00:28:34;102099.13;;;20.93;84.18
59787;BME280;45672;51.612;5.536;2023-08-21T00:31:01;102092.22;;;20.90;84.97
59787;BME280;45672;51.612;5.536;2023-08-21T00:33:27;102098.94;;;20.94;84.91
59787;BME280;45672;51.612;5.536;2023-08-21T00:35:52;102096.03;;;20.96;85.59
59787;BME280;45672;51.612;5.536;2023-08-21T00:38:17;102097.31;;;21.00;85.37
59787;BME280;45672;51.612;5.536;2023-08-21T00:40:43;102096.50;;;20.99;85.35
59787;BME280;45672;51.612;5.536;2023-08-21T00:43:08;102086.03;;;20.96;85.24
59787;BME280;45672;51.612;5.536;2023-08-21T00:45:33;102092.88;;;20.92;85.35
59787;BME280;45672;51.612;5.536;2023-08-21T00:47:59;102090.50;;;20.82;85.81
59787;BME280;45672;51.612;5.536;2023-08-21T00:50:24;102088.81;;;20.81;86.20
59787;BME280;45672;51.612;5.536;2023-08-21T00:52:50;102085.84;;;20.76;86.02
59787;BME280;45672;51.612;5.536;2023-08-21T00:55:16;102075.19;;;20.68;86.07
59787;BME280;45672;51.612;5.536;2023-08-21T00:57:42;102079.63;;;20.61;86.23
59787;BME280;45672;51.612;5.536;2023-08-21T01:00:08;102086.47;;;20.57;87.65
59787;BME280;45672;51.612;5.536;2023-08-21T01:02:38;102088.22;;;20.49;87.68
59787;BME280;45672;51.612;5.536;2023-08-21T01:05:03;102086.28;;;20.43;87.96
59787;BME280;45672;51.612;5.536;2023-08-21T01:07:32;102089.78;;;20.37;88.51
59787;BME280;45672;51.612;5.536;2023-08-21T01:10:09;102083.88;;;20.33;89.15
59787;BME280;45672;51.612;5.536;2023-08-21T01:12:43;102086.78;;;20.32;89.34
59787;BME280;45672;51.612;5.536;2023-08-21T01:15:14;102091.56;;;20.30;89.30
59787;BME280;45672;51.612;5.536;2023-08-21T01:17:40;102095.38;;;20.36;89.12
59787;BME280;45672;51.612;5.536;2023-08-21T01:20:07;102097.88;;;20.37;89.44
59787;BME280;45672;51.612;5.536;2023-08-21T01:22:38;102085.19;;;20.38;89.70
59787;BME280;45672;51.612;5.536;2023-08-21T01:25:04;102086.50;;;20.42;88.92
59787;BME280;45672;51.612;5.536;2023-08-21T01:27:30;102093.38;;;20.44;89.46
59787;BME280;45672;51.612;5.536;2023-08-21T01:29:56;102091.31;;;20.46;89.38
59787;BME280;45672;51.612;5.536;2023-08-21T01:32:43;102093.00;;;20.47;89.03
59787;BME280;45672;51.612;5.536;2023-08-21T01:35:10;102078.84;;;20.45;89.58
59787;BME280;45672;51.612;5.536;2023-08-21T01:37:37;102079.59;;;20.39;89.35
59787;BME280;45672;51.612;5.536;2023-08-21T01:40:03;102078.28;;;20.35;89.57
59787;BME280;45672;51.612;5.536;2023-08-21T01:42:28;102070.13;;;20.28;89.32
59787;BME280;45672;51.612;5.536;2023-08-21T01:44:54;102060.63;;;20.18;89.90
59787;BME280;45672;51.612;5.536;2023-08-21T01:47:19;102074.53;;;20.14;90.76
59787;BME280;45672;51.612;5.536;2023-08-21T01:49:45;102070.13;;;20.13;90.81
59787;BME280;45672;51.612;5.536;2023-08-21T01:52:10;102069.22;;;20.06;91.14
59787;BME280;45672;51.612;5.536;2023-08-21T01:54:35;102068.94;;;20.01;91.78
59787;BME280;45672;51.612;5.536;2023-08-21T01:57:01;102072.41;;;19.95;91.91
59787;BME280;45672;51.612;5.536;2023-08-21T01:59:26;102074.66;;;19.91;92.50
59787;BME280;45672;51.612;5.536;2023-08-21T02:01:51;102074.56;;;19.85;93.04
59787;BME280;45672;51.612;5.536;2023-08-21T02:04:17;102078.13;;;19.77;93.25
59787;BME280;45672;51.612;5.536;2023-08-21T02:06:42;102073.97;;;19.74;93.28
59787;BME280;45672;51.612;5.536;2023-08-21T02:09:09;102072.00;;;19.68;93.47
59787;BME280;45672;51.612;5.536;2023-08-21T02:11:35;102085.13;;;19.71;93.98
59787;BME280;45672;51.612;5.536;2023-08-21T02:14:00;102084.78;;;19.74;94.10
59787;BME280;45672;51.612;5.536;2023-08-21T02:16:26;102088.47;;;19.73;94.45
59787;BME280;45672;51.612;5.536;2023-08-21T02:18:51;102085.78;;;19.73;94.23
59787;BME280;45672;51.612;5.536;2023-08-21T02:21:16;102086.63;;;19.74;94.31
59787;BME280;45672;51.612;5.536;2023-08-21T02:23:42;102081.13;;;19.67;94.87
59787;BME280;45672;51.612;5.536;2023-08-21T02:26:07;102086.16;;;19.70;93.80
59787;BME280;45672;51.612;5.536;2023-08-21T02:28:32;102088.56;;;19.65;94.56
59787;BME280;45672;51.612;5.536;2023-08-21T02:30:58;102090.44;;;19.64;94.90
59787;BME280;45672;51.612;5.536;2023-08-21T02:33:23;102092.47;;;19.62;94.51
59787;BME280;45672;51.612;5.536;2023-08-21T02:35:48;102084.38;;;19.62;94.06
59787;BME280;45672;51.612;5.536;2023-08-21T02:38:14;102094.63;;;19.67;94.22
59787;BME280;45672;51.612;5.536;2023-08-21T02:40:39;102086.69;;;19.66;94.14
59787;BME280;45672;51.612;5.536;2023-08-21T02:43:04;102090.72;;;19.70;94.42
59787;BME280;45672;51.612;5.536;2023-08-21T02:45:30;102087.19;;;19.69;94.64
59787;BME280;45672;51.612;5.536;2023-08-21T02:47:55;102088.19;;;19.68;94.87
59787;BME280;45672;51.612;5.536;2023-08-21T02:50:21;102078.88;;;19.71;95.07
59787;BME280;45672;51.612;5.536;2023-08-21T02:52:46;102088.00;;;19.70;95.79
59787;BME280;45672;51.612;5.536;2023-08-21T02:55:12;102091.25;;;19.65;95.66
59787;BME280;45672;51.612;5.536;2023-08-21T02:57:37;102087.75;;;19.64;95.34
59787;BME280;45672;51.612;5.536;2023-08-21T03:00:03;102080.00;;;19.61;95.76
59787;BME280;45672;51.612;5.536;2023-08-21T03:02:29;102083.91;;;19.59;95.61
59787;BME280;45672;51.612;5.536;2023-08-21T03:04:54;102088.47;;;19.58;96.61
59787;BME280;45672;51.612;5.536;2023-08-21T03:07:19;102082.78;;;19.53;96.58
59787;BME280;45672;51.612;5.536;2023-08-21T03:09:46;102079.03;;;19.54;96.44
59787;BME280;45672;51.612;5.536;2023-08-21T03:12:14;102085.00;;;19.50;96.67
59787;BME280;45672;51.612;5.536;2023-08-21T03:14:39;102077.47;;;19.45;96.45
59787;BME280;45672;51.612;5.536;2023-08-21T03:17:05;102082.81;;;19.30;97.25
59787;BME280;45672;51.612;5.536;2023-08-21T03:19:30;102083.94;;;19.21;98.50
59787;BME280;45672;51.612;5.536;2023-08-21T03:21:56;102080.66;;;19.10;98.81
59787;BME280;45672;51.612;5.536;2023-08-21T03:24:21;102089.56;;;19.11;99.17
59787;BME280;45672;51.612;5.536;2023-08-21T03:26:47;102088.94;;;19.09;99.08
59787;BME280;45672;51.612;5.536;2023-08-21T03:29:13;102084.38;;;19.09;99.14
59787;BME280;45672;51.612;5.536;2023-08-21T03:31:38;102084.25;;;19.03;99.73
59787;BME280;45672;51.612;5.536;2023-08-21T03:34:03;102092.16;;;19.04;99.74
59787;BME280;45672;51.612;5.536;2023-08-21T03:36:29;102089.09;;;19.07;99.82
59787;BME280;45672;51.612;5.536;2023-08-21T03:39:00;102093.09;;;19.11;99.10
59787;BME280;45672;51.612;5.536;2023-08-21T03:41:27;102087.72;;;19.11;99.12
59787;BME280;45672;51.612;5.536;2023-08-21T03:43:52;102094.66;;;19.06;99.70
59787;BME280;45672;51.612;5.536;2023-08-21T03:46:18;102091.78;;;19.07;99.22
59787;BME280;45672;51.612;5.536;2023-08-21T03:48:43;102082.75;;;19.00;99.48
59787;BME280;45672;51.612;5.536;2023-08-21T03:51:08;102089.63;;;19.03;99.61
59787;BME280;45672;51.612;5.536;2023-08-21T03:53:34;102072.31;;;18.97;99.39
59787;BME280;45672;51.612;5.536;2023-08-21T03:55:59;102078.56;;;18.98;100.00
59787;BME280;45672;51.612;5.536;2023-08-21T03:58:24;102079.09;;;18.93;99.85
59787;BME280;45672;51.612;5.536;2023-08-21T04:00:51;102080.78;;;18.94;100.00
59787;BME280;45672;51.612;5.536;2023-08-21T04:03:17;102085.53;;;18.92;100.00
59787;BME280;45672;51.612;5.536;2023-08-21T04:05:42;102078.25;;;18.92;100.00
59787;BME280;45672;51.612;5.536;2023-08-21T04:08:07;102084.31;;;18.94;100.00
59787;BME280;45672;51.612;5.536;2023-08-21T04:10:33;102081.78;;;18.93;100.00
59787;BME280;45672;51.612;5.536;2023-08-21T04:12:58;102087.72;;;18.88;100.00
59787;BME280;45672;51.612;5.536;2023-08-21T04:15:23;102087.28;;;18.76;100.00
59787;BME280;45672;51.612;5.536;2023-08-21T04:17:49;102093.03;;;18.73;100.00
59787;BME280;45672;51.612;5.536;2023-08-21T04:20:14;102089.66;;;18.71;100.00
59787;BME280;45672;51.612;5.536;2023-08-21T04:22:40;102087.78;;;18.72;100.00
59787;BME280;45672;51.612;5.536;2023-08-21T04:25:05;102087.97;;;18.70;100.00
59787;BME280;45672;51.612;5.536;2023-08-21T04:27:32;102087.50;;;18.67;100.00
59787;BME280;45672;51.612;5.536;2023-08-21T04:29:58;102090.22;;;18.67;100.00
59787;BME280;45672;51.612;5.536;2023-08-21T04:32:24;102087.34;;;18.68;100.00
59787;BME280;45672;51.612;5.536;2023-08-21T04:34:50;102096.44;;;18.67;100.00
59787;BME280;45672;51.612;5.536;2023-08-21T04:37:15;102094.06;;;18.72;100.00
59787;BME280;45672;51.612;5.536;2023-08-21T04:39:40;102097.28;;;18.68;100.00
59787;BME280;45672;51.612;5.536;2023-08-21T04:42:06;102093.56;;;18.69;100.00
59787;BME280;45672;51.612;5.536;2023-08-21T04:44:31;102093.03;;;18.73;100.00
59787;BME280;45672;51.612;5.536;2023-08-21T04:46:56;102096.19;;;18.77;100.00
59787;BME280;45672;51.612;5.536;2023-08-21T04:49:22;102113.16;;;18.86;100.00
59787;BME280;45672;51.612;5.536;2023-08-21T04:51:47;102115.00;;;18.93;100.00
59787;BME280;45672;51.612;5.536;2023-08-21T04:54:13;102108.69;;;19.01;100.00
59787;BME280;45672;51.612;5.536;2023-08-21T04:56:38;102103.25;;;19.09;100.00
59787;BME280;45672;51.612;5.536;2023-08-21T04:59:03;102118.53;;;19.17;100.00
59787;BME280;45672;51.612;5.536;2023-08-21T05:01:29;102113.06;;;19.25;100.00
59787;BME280;45672;51.612;5.536;2023-08-21T05:03:55;102111.88;;;19.28;100.00
59787;BME280;45672;51.612;5.536;2023-08-21T05:06:20;102122.09;;;19.33;100.00
59787;BME280;45672;51.612;5.536;2023-08-21T05:08:45;102121.47;;;19.31;100.00
59787;BME280;45672;51.612;5.536;2023-08-21T05:11:11;102115.31;;;19.22;100.00
59787;BME280;45672;51.612;5.536;2023-08-21T05:13:36;102120.69;;;19.22;100.00
59787;BME280;45672;51.612;5.536;2023-08-21T05:16:01;102124.53;;;19.27;100.00
59787;BME280;45672;51.612;5.536;2023-08-21T05:18:27;102136.28;;;19.35;100.00
59787;BME280;45672;51.612;5.536;2023-08-21T05:20:54;102139.44;;;19.38;100.00
59787;BME280;45672;51.612;5.536;2023-08-21T05:23:20;102131.28;;;19.46;100.00
59787;BME280;45672;51.612;5.536;2023-08-21T05:25:47;102136.78;;;19.53;100.00
59787;BME280;45672;51.612;5.536;2023-08-21T05:28:13;102141.63;;;19.58;100.00
59787;BME280;45672;51.612;5.536;2023-08-21T05:30:38;102134.34;;;19.58;100.00
59787;BME280;45672;51.612;5.536;2023-08-21T05:33:04;102129.22;;;19.49;100.00
59787;BME280;45672;51.612;5.536;2023-08-21T05:35:33;102138.06;;;19.42;100.00
59787;BME280;45672;51.612;5.536;2023-08-21T05:37:59;102134.72;;;19.40;100.00
59787;BME280;45672;51.612;5.536;2023-08-21T05:40:24;102135.34;;;19.42;100.00
59787;BME280;45672;51.612;5.536;2023-08-21T05:42:49;102141.94;;;19.40;100.00
59787;BME280;45672;51.612;5.536;2023-08-21T05:45:15;102144.84;;;19.38;100.00
59787;BME280;45672;51.612;5.536;2023-08-21T05:47:40;102146.34;;;19.41;100.00
59787;BME280;45672;51.612;5.536;2023-08-21T05:50:06;102150.53;;;19.43;100.00
59787;BME280;45672;51.612;5.536;2023-08-21T05:52:31;102160.03;;;19.54;100.00
59787;BME280;45672;51.612;5.536;2023-08-21T05:54:56;102154.75;;;19.61;100.00
59787;BME280;45672;51.612;5.536;2023-08-21T05:57:22;102147.66;;;19.60;100.00
59787;BME280;45672;51.612;5.536;2023-08-21T05:59:47;102151.03;;;19.62;100.00
59787;BME280;45672;51.612;5.536;2023-08-21T06:02:13;102154.88;;;19.68;100.00
59787;BME280;45672;51.612;5.536;2023-08-21T06:04:40;102151.91;;;19.77;100.00
59787;BME280;45672;51.612;5.536;2023-08-21T06:07:06;102150.88;;;19.78;100.00
59787;BME280;45672;51.612;5.536;2023-08-21T06:09:31;102147.47;;;19.85;100.00
59787;BME280;45672;51.612;5.536;2023-08-21T06:12:07;102149.25;;;19.92;100.00
59787;BME280;45672;51.612;5.536;2023-08-21T06:14:33;102143.56;;;20.02;99.23
59787;BME280;45672;51.612;5.536;2023-08-21T06:17:00;102149.16;;;20.15;98.43
59787;BME280;45672;51.612;5.536;2023-08-21T06:19:29;102148.31;;;20.30;98.01
59787;BME280;45672;51.612;5.536;2023-08-21T06:21:55;102141.19;;;20.44;95.88
59787;BME280;45672;51.612;5.536;2023-08-21T06:24:21;102159.00;;;20.68;93.47
59787;BME280;45672;51.612;5.536;2023-08-21T06:26:47;102153.34;;;20.84;92.48
59787;BME280;45672;51.612;5.536;2023-08-21T06:29:12;102161.88;;;21.03;91.65
59787;BME280;45672;51.612;5.536;2023-08-21T06:31:37;102162.91;;;21.24;90.56
59787;BME280;45672;51.612;5.536;2023-08-21T06:34:03;102162.22;;;21.43;89.03
59787;BME280;45672;51.612;5.536;2023-08-21T06:36:28;102165.38;;;21.68;87.51
59787;BME280;45672;51.612;5.536;2023-08-21T06:38:55;102170.28;;;22.15;85.42
59787;BME280;45672;51.612;5.536;2023-08-21T06:41:20;102161.38;;;22.69;81.14
59787;BME280;45672;51.612;5.536;2023-08-21T06:43:46;102164.03;;;23.31;78.02
59787;BME280;45672;51.612;5.536;2023-08-21T06:46:11;102165.88;;;23.84;74.80
59787;BME280;45672;51.612;5.536;2023-08-21T06:48:38;102166.66;;;24.25;72.58
59787;BME280;45672;51.612;5.536;2023-08-21T06:51:05;102172.69;;;24.27;70.28
59787;BME280;45672;51.612;5.536;2023-08-21T06:53:30;102171.22;;;24.38;70.00
59787;BME280;45672;51.612;5.536;2023-08-21T06:55:56;102167.16;;;24.60;70.04
59787;BME280;45672;51.612;5.536;2023-08-21T06:58:21;102168.47;;;25.22;66.63
59787;BME280;45672;51.612;5.536;2023-08-21T07:00:47;102175.47;;;25.87;61.42
59787;BME280;45672;51.612;5.536;2023-08-21T07:03:12;102178.22;;;26.42;58.06
59787;BME280;45672;51.612;5.536;2023-08-21T07:05:37;102181.22;;;27.01;57.24
59787;BME280;45672;51.612;5.536;2023-08-21T07:08:03;102178.50;;;27.44;53.03
59787;BME280;45672;51.612;5.536;2023-08-21T07:10:28;102179.22;;;27.63;51.86
59787;BME280;45672;51.612;5.536;2023-08-21T07:12:54;102177.78;;;27.48;52.94
59787;BME280;45672;51.612;5.536;2023-08-21T07:15:20;102171.13;;;28.03;52.26
59787;BME280;45672;51.612;5.536;2023-08-21T07:17:45;102176.66;;;28.61;49.56
59787;BME280;45672;51.612;5.536;2023-08-21T07:20:11;102176.16;;;29.22;47.90
59787;BME280;45672;51.612;5.536;2023-08-21T07:22:36;102184.00;;;29.30;46.11
59787;BME280;45672;51.612;5.536;2023-08-21T07:25:01;102179.31;;;29.65;45.36
59787;BME280;45672;51.612;5.536;2023-08-21T07:27:30;102182.91;;;30.04;44.70
59787;BME280;45672;51.612;5.536;2023-08-21T07:29:56;102178.44;;;30.20;43.52
59787;BME280;45672;51.612;5.536;2023-08-21T07:32:21;102185.28;;;30.62;42.87
59787;BME280;45672;51.612;5.536;2023-08-21T07:34:47;102184.34;;;31.38;41.20
59787;BME280;45672;51.612;5.536;2023-08-21T07:37:12;102193.00;;;31.95;39.66
59787;BME280;45672;51.612;5.536;2023-08-21T07:39:37;102187.22;;;31.54;40.51
59787;BME280;45672;51.612;5.536;2023-08-21T07:42:03;102190.97;;;31.75;39.39
59787;BME280;45672;51.612;5.536;2023-08-21T07:44:28;102192.19;;;32.63;38.65
59787;BME280;45672;51.612;5.536;2023-08-21T07:46:53;102193.13;;;33.25;37.49
59787;BME280;45672;51.612;5.536;2023-08-21T07:49:19;102190.84;;;33.68;36.12
59787;BME280;45672;51.612;5.536;2023-08-21T07:51:44;102196.94;;;32.88;37.34
59787;BME280;45672;51.612;5.536;2023-08-21T07:54:09;102193.44;;;31.39;38.37
59787;BME280;45672;51.612;5.536;2023-08-21T07:56:36;102195.59;;;30.50;40.96
59787;BME280;45672;51.612;5.536;2023-08-21T07:59:02;102195.63;;;29.37;42.99
59787;BME280;45672;51.612;5.536;2023-08-21T08:01:28;102200.03;;;28.93;45.14
59787;BME280;45672;51.612;5.536;2023-08-21T08:03:53;102192.06;;;28.62;45.41
59787;BME280;45672;51.612;5.536;2023-08-21T08:06:19;102195.41;;;29.10;44.96
59787;BME280;45672;51.612;5.536;2023-08-21T08:08:44;102189.38;;;29.25;44.29
59787;BME280;45672;51.612;5.536;2023-08-21T08:11:09;102193.63;;;29.33;42.81
59787;BME280;45672;51.612;5.536;2023-08-21T08:13:35;102196.78;;;29.42;42.50
59787;BME280;45672;51.612;5.536;2023-08-21T08:16:00;102200.00;;;28.76;43.64
59787;BME280;45672;51.612;5.536;2023-08-21T08:18:25;102204.47;;;28.53;45.22
59787;BME280;45672;51.612;5.536;2023-08-21T08:20:51;102188.00;;;28.65;44.49
59787;BME280;45672;51.612;5.536;2023-08-21T08:23:16;102200.38;;;28.55;44.06
59787;BME280;45672;51.612;5.536;2023-08-21T08:25:42;102205.66;;;28.86;44.76
59787;BME280;45672;51.612;5.536;2023-08-21T08:28:07;102200.59;;;29.91;41.41
59787;BME280;45672;51.612;5.536;2023-08-21T08:30:33;102207.31;;;30.23;39.91
59787;BME280;45672;51.612;5.536;2023-08-21T08:32:59;102206.47;;;30.89;39.18
59787;BME280;45672;51.612;5.536;2023-08-21T08:35:25;102204.78;;;31.48;37.25
59787;BME280;45672;51.612;5.536;2023-08-21T08:37:50;102206.59;;;32.86;35.29
59787;BME280;45672;51.612;5.536;2023-08-21T08:40:15;102202.75;;;33.64;32.99
59787;BME280;45672;51.612;5.536;2023-08-21T08:42:41;102204.16;;;34.47;31.26
59787;BME280;45672;51.612;5.536;2023-08-21T08:45:07;102200.94;;;34.25;31.56
59787;BME280;45672;51.612;5.536;2023-08-21T08:47:33;102206.59;;;35.68;29.57
59787;BME280;45672;51.612;5.536;2023-08-21T08:50:02;102213.81;;;37.79;27.76
59787;BME280;45672;51.612;5.536;2023-08-21T08:52:29;102218.84;;;39.59;25.30
59787;BME280;45672;51.612;5.536;2023-08-21T08:54:57;102215.53;;;41.55;23.20
59787;BME280;45672;51.612;5.536;2023-08-21T08:57:22;102228.44;;;42.07;21.41
59787;BME280;45672;51.612;5.536;2023-08-21T08:59:48;102213.88;;;41.54;21.71
59787;BME280;45672;51.612;5.536;2023-08-21T09:02:13;102217.28;;;41.04;22.02
59787;BME280;45672;51.612;5.536;2023-08-21T09:04:38;102215.38;;;39.31;23.99
59787;BME280;45672;51.612;5.536;2023-08-21T09:07:11;102210.31;;;39.10;25.52
59787;BME280;45672;51.612;5.536;2023-08-21T09:09:39;102214.72;;;37.88;26.17
59787;BME280;45672;51.612;5.536;2023-08-21T09:12:12;102202.59;;;37.04;29.03
59787;BME280;45672;51.612;5.536;2023-08-21T09:14:42;102201.78;;;36.65;27.90
59787;BME280;45672;51.612;5.536;2023-08-21T09:17:08;102207.41;;;36.17;28.89
59787;BME280;45672;51.612;5.536;2023-08-21T09:19:34;102210.16;;;35.98;29.33
59787;BME280;45672;51.612;5.536;2023-08-21T09:22:14;102205.16;;;37.00;29.02
59787;BME280;45672;51.612;5.536;2023-08-21T09:24:40;102194.63;;;37.91;25.33
59787;BME280;45672;51.612;5.536;2023-08-21T09:27:16;102210.56;;;39.00;25.59
59787;BME280;45672;51.612;5.536;2023-08-21T09:29:42;102209.34;;;40.09;23.29
59787;BME280;45672;51.612;5.536;2023-08-21T09:32:07;102203.84;;;40.53;22.66
59787;BME280;45672;51.612;5.536;2023-08-21T09:34:36;102202.69;;;41.07;22.50
59787;BME280;45672;51.612;5.536;2023-08-21T09:37:06;102198.16;;;41.41;21.92
59787;BME280;45672;51.612;5.536;2023-08-21T09:39:35;102196.19;;;42.10;20.94
59787;BME280;45672;51.612;5.536;2023-08-21T09:42:08;102200.59;;;41.51;21.90
59787;BME280;45672;51.612;5.536;2023-08-21T09:44:40;102205.41;;;41.80;22.63
59787;BME280;45672;51.612;5.536;2023-08-21T09:47:10;102208.16;;;42.19;20.84
59787;BME280;45672;51.612;5.536;2023-08-21T09:49:36;102201.81;;;42.73;20.34
59787;BME280;45672;51.612;5.536;2023-08-21T09:52:04;102194.19;;;42.19;20.84
59787;BME280;45672;51.612;5.536;2023-08-21T09:54:31;102193.84;;;42.12;20.75
59787;BME280;45672;51.612;5.536;2023-08-21T09:57:01;102200.88;;;40.76;22.17
59787;BME280;45672;51.612;5.536;2023-08-21T09:59:27;102195.22;;;38.66;24.32
59787;BME280;45672;51.612;5.536;2023-08-21T10:01:54;102185.13;;;37.03;25.87
59787;BME280;45672;51.612;5.536;2023-08-21T10:04:22;102185.66;;;36.67;26.54
59787;BME280;45672;51.612;5.536;2023-08-21T10:06:48;102194.19;;;37.42;25.89
59787;BME280;45672;51.612;5.536;2023-08-21T10:09:16;102185.19;;;37.78;25.41
59787;BME280;45672;51.612;5.536;2023-08-21T10:11:42;102181.47;;;37.69;25.98
59787;BME280;45672;51.612;5.536;2023-08-21T10:14:09;102184.44;;;37.72;24.13
59787;BME280;45672;51.612;5.536;2023-08-21T10:16:35;102176.38;;;36.58;26.18
59787;BME280;45672;51.612;5.536;2023-08-21T10:19:04;102175.97;;;35.25;27.26
59787;BME280;45672;51.612;5.536;2023-08-21T10:21:36;102167.50;;;34.26;28.92
59787;BME280;45672;51.612;5.536;2023-08-21T10:24:03;102162.31;;;34.09;29.69
59787;BME280;45672;51.612;5.536;2023-08-21T10:26:28;102173.38;;;36.54;27.36
59787;BME280;45672;51.612;5.536;2023-08-21T10:28:55;102166.63;;;38.15;23.39
59787;BME280;45672;51.612;5.536;2023-08-21T10:31:32;102180.63;;;37.68;23.18
59787;BME280;45672;51.612;5.536;2023-08-21T10:33:59;102174.38;;;36.45;25.22
59787;BME280;45672;51.612;5.536;2023-08-21T10:39:34;102166.00;;;34.94;29.26
59787;BME280;45672;51.612;5.536;2023-08-21T10:42:09;102166.41;;;34.17;30.36
59787;BME280;45672;51.612;5.536;2023-08-21T10:47:14;102160.53;;;33.63;31.67
59787;BME280;45672;51.612;5.536;2023-08-21T10:50:02;102163.06;;;33.24;32.55
59787;BME280;45672;51.612;5.536;2023-08-21T10:52:29;102168.56;;;33.03;32.23
59787;BME280;45672;51.612;5.536;2023-08-21T10:54:58;102170.56;;;32.19;32.52
59787;BME280;45672;51.612;5.536;2023-08-21T10:57:25;102177.84;;;31.92;34.05
59787;BME280;45672;51.612;5.536;2023-08-21T10:59:58;102179.75;;;31.87;34.63
59787;BME280;45672;51.612;5.536;2023-08-21T11:02:27;102178.34;;;31.79;34.15
59787;BME280;45672;51.612;5.536;2023-08-21T11:04:55;102178.13;;;31.91;33.82
59787;BME280;45672;51.612;5.536;2023-08-21T11:07:21;102175.34;;;31.91;32.34
59787;BME280;45672;51.612;5.536;2023-08-21T11:09:50;102172.09;;;31.94;32.60
59787;BME280;45672;51.612;5.536;2023-08-21T11:12:17;102174.72;;;31.73;33.19
59787;BME280;45672;51.612;5.536;2023-08-21T11:14:43;102168.63;;;31.28;32.96
59787;BME280;45672;51.612;5.536;2023-08-21T11:17:09;102171.63;;;31.00;34.04
59787;BME280;45672;51.612;5.536;2023-08-21T11:19:35;102159.13;;;30.82;35.19
59787;BME280;45672;51.612;5.536;2023-08-21T11:22:01;102152.69;;;30.71;35.57
59787;BME280;45672;51.612;5.536;2023-08-21T11:27:03;102152.09;;;30.19;36.22
59787;BME280;45672;51.612;5.536;2023-08-21T11:29:32;102158.94;;;30.17;36.63
59787;BME280;45672;51.612;5.536;2023-08-21T11:31:58;102156.63;;;30.08;36.91
59787;BME280;45672;51.612;5.536;2023-08-21T11:34:23;102153.50;;;30.00;37.17
59787;BME280;45672;51.612;5.536;2023-08-21T11:36:48;102150.84;;;30.05;36.32
59787;BME280;45672;51.612;5.536;2023-08-21T11:39:14;102162.97;;;29.92;36.81
59787;BME280;45672;51.612;5.536;2023-08-21T11:41:56;102147.03;;;29.89;36.16
59787;BME280;45672;51.612;5.536;2023-08-21T11:44:22;102150.53;;;29.84;35.69
59787;BME280;45672;51.612;5.536;2023-08-21T11:46:47;102148.97;;;29.88;36.39
59787;BME280;45672;51.612;5.536;2023-08-21T11:49:12;102152.47;;;29.67;36.73
59787;BME280;45672;51.612;5.536;2023-08-21T11:51:39;102140.19;;;29.69;37.09
59787;BME280;45672;51.612;5.536;2023-08-21T11:54:05;102138.75;;;29.84;37.30
59787;BME280;45672;51.612;5.536;2023-08-21T11:56:31;102137.06;;;29.83;37.13
59787;BME280;45672;51.612;5.536;2023-08-21T11:58:56;102129.91;;;29.82;37.67
59787;BME280;45672;51.612;5.536;2023-08-21T12:01:24;102127.31;;;29.53;38.66
59787;BME280;45672;51.612;5.536;2023-08-21T12:03:49;102138.44;;;29.46;39.20
59787;BME280;45672;51.612;5.536;2023-08-21T12:06:21;102132.44;;;29.66;38.36
59787;BME280;45672;51.612;5.536;2023-08-21T12:08:47;102130.00;;;29.87;36.84
59787;BME280;45672;51.612;5.536;2023-08-21T12:11:12;102139.41;;;29.91;35.60
59787;BME280;45672;51.612;5.536;2023-08-21T12:13:37;102143.78;;;29.92;36.12
59787;BME280;45672;51.612;5.536;2023-08-21T12:16:03;102137.72;;;29.90;36.63
59787;BME280;45672;51.612;5.536;2023-08-21T12:18:29;102131.47;;;29.95;36.64
59787;BME280;45672;51.612;5.536;2023-08-21T12:20:54;102131.75;;;29.76;36.29
59787;BME280;45672;51.612;5.536;2023-08-21T12:23:19;102135.94;;;29.62;36.77
59787;BME280;45672;51.612;5.536;2023-08-21T12:25:45;102129.72;;;29.49;36.96
59787;BME280;45672;51.612;5.536;2023-08-21T12:28:11;102128.75;;;29.38;36.43
59787;BME280;45672;51.612;5.536;2023-08-21T12:30:36;102123.25;;;29.04;37.39
59787;BME280;45672;51.612;5.536;2023-08-21T12:33:02;102117.66;;;28.82;37.32
59787;BME280;45672;51.612;5.536;2023-08-21T12:35:27;102116.41;;;28.73;38.21
59787;BME280;45672;51.612;5.536;2023-08-21T12:37:57;102119.47;;;28.77;38.49
59787;BME280;45672;51.612;5.536;2023-08-21T12:40:23;102120.34;;;28.94;39.06
59787;BME280;45672;51.612;5.536;2023-08-21T12:42:49;102123.81;;;29.06;39.53
59787;BME280;45672;51.612;5.536;2023-08-21T12:45:15;102119.84;;;29.14;38.15
59787;BME280;45672;51.612;5.536;2023-08-21T12:47:41;102105.78;;;29.11;37.54
59787;BME280;45672;51.612;5.536;2023-08-21T12:50:06;102104.56;;;29.01;37.89
59787;BME280;45672;51.612;5.536;2023-08-21T12:52:32;102095.03;;;29.04;37.70